createdAt,value
2018-12-11T00:00:08.749Z,99722.46
2018-12-11T00:02:52.456Z,99728.93
2018-12-11T00:05:35.871Z,99724.53
2018-12-11T00:08:17.266Z,99714.98
2018-12-11T00:10:59.570Z,99724.73
2018-12-11T00:13:41.209Z,99730.20
2018-12-11T00:16:22.963Z,99730.89
2018-12-11T00:19:04.914Z,99728.02
2018-12-11T00:21:46.777Z,99729.39
2018-12-11T00:24:28.411Z,99731.67
2018-12-11T00:27:10.316Z,99745.40
2018-12-11T00:29:52.260Z,99739.47
2018-12-11T00:32:34.604Z,99730.11
2018-12-11T00:35:16.069Z,99733.70
2018-12-11T00:37:57.719Z,99732.56
2018-12-11T00:40:39.671Z,99739.55
2018-12-11T00:43:21.462Z,99742.27
2018-12-11T00:46:03.251Z,99743.96
2018-12-11T00:48:45.014Z,99737.91
2018-12-11T00:51:27.916Z,99747.25
2018-12-11T00:54:09.895Z,99748.18
2018-12-11T00:56:51.324Z,99751.17
2018-12-11T00:59:32.793Z,99751.33
2018-12-11T01:02:14.450Z,99751.33
2018-12-11T01:04:55.738Z,99743.84
2018-12-11T01:07:37.536Z,99750.02
2018-12-11T01:10:18.861Z,99746.94
2018-12-11T01:13:00.580Z,99746.64
2018-12-11T01:15:42.340Z,99743.61
2018-12-11T01:18:23.998Z,99750.84
2018-12-11T01:21:06.440Z,99751.91
2018-12-11T01:23:48.232Z,99753.92
2018-12-11T01:26:30.013Z,99754.50
2018-12-11T01:29:11.391Z,99762.21
2018-12-11T01:31:53.131Z,99764.34
2018-12-11T01:34:34.693Z,99760.08
2018-12-11T01:37:15.956Z,99765.11
2018-12-11T01:39:57.553Z,99772.73
2018-12-11T01:42:39.923Z,99774.84
2018-12-11T01:45:21.821Z,99773.76
2018-12-11T01:48:03.527Z,99777.58
2018-12-11T01:50:45.687Z,99773.31
2018-12-11T01:53:27.415Z,99780.91
2018-12-11T01:56:09.575Z,99769.66
2018-12-11T01:58:51.183Z,99770.19
2018-12-11T02:01:33.215Z,99777.89
2018-12-11T02:04:14.874Z,99774.89
2018-12-11T02:06:56.056Z,99776.95
2018-12-11T02:09:38.099Z,99777.25
2018-12-11T02:12:19.833Z,99784.03
2018-12-11T02:15:02.034Z,99777.57
2018-12-11T02:17:44.028Z,99777.08
2018-12-11T02:20:25.891Z,99782.70
2018-12-11T02:23:07.101Z,99777.69
2018-12-11T02:25:49.413Z,99784.38
2018-12-11T02:28:32.057Z,99787.41
2018-12-11T02:31:14.435Z,99786.81
2018-12-11T02:33:57.057Z,99780.46
2018-12-11T02:36:38.437Z,99784.53
2018-12-11T02:39:21.178Z,99777.91
2018-12-11T02:42:04.098Z,99774.51
2018-12-11T02:44:46.915Z,99790.52
2018-12-11T02:47:28.726Z,99782.45
2018-12-11T02:50:10.568Z,99783.03
2018-12-11T02:52:52.360Z,99773.21
2018-12-11T02:55:34.542Z,99772.70
2018-12-11T02:58:16.765Z,99775.26
2018-12-11T03:00:58.690Z,99779.92
2018-12-11T03:03:40.511Z,99762.47
2018-12-11T03:06:22.639Z,99758.66
2018-12-11T03:09:07.648Z,99759.02
2018-12-11T03:11:50.648Z,99765.03
2018-12-11T03:14:33.321Z,99770.31
2018-12-11T03:17:15.681Z,99771.32
2018-12-11T03:19:58.419Z,99776.73
2018-12-11T03:22:40.317Z,99774.48
2018-12-11T03:25:22.479Z,99765.11
2018-12-11T03:28:04.886Z,99773.64
2018-12-11T03:30:47.048Z,99766.13
2018-12-11T03:33:29.294Z,99774.97
2018-12-11T03:36:11.549Z,99772.78
2018-12-11T03:38:53.471Z,99774.70
2018-12-11T03:41:36.471Z,99780.19
2018-12-11T03:44:19.203Z,99778.84
2018-12-11T03:47:01.656Z,99774.01
2018-12-11T03:49:43.434Z,99771.47
2018-12-11T03:52:26.049Z,99774.00
2018-12-11T03:55:09.202Z,99770.15
2018-12-11T03:57:51.518Z,99764.36
2018-12-11T04:00:34.042Z,99756.09
2018-12-11T04:03:16.697Z,99762.02
2018-12-11T04:05:59.237Z,99758.67
2018-12-11T04:08:41.670Z,99770.44
2018-12-11T04:11:24.237Z,99773.20
2018-12-11T04:14:06.136Z,99772.20
2018-12-11T04:16:48.569Z,99772.67
2018-12-11T04:19:31.327Z,99767.69
2018-12-11T04:22:12.872Z,99773.61
2018-12-11T04:24:55.561Z,99758.16
2018-12-11T04:27:37.919Z,99765.58
2018-12-11T04:30:20.281Z,99763.02
2018-12-11T04:33:03.014Z,99767.20
2018-12-11T04:35:45.311Z,99764.16
2018-12-11T04:38:27.499Z,99771.44
2018-12-11T04:41:10.581Z,99763.23
2018-12-11T04:43:52.955Z,99765.63
2018-12-11T04:46:34.313Z,99773.91
2018-12-11T04:49:16.156Z,99784.62
2018-12-11T04:51:58.156Z,99766.57
2018-12-11T04:54:40.643Z,99765.55
2018-12-11T04:57:23.107Z,99763.00
2018-12-11T05:00:05.926Z,99762.72
2018-12-11T05:02:48.552Z,99759.09
2018-12-11T05:05:30.910Z,99753.23
2018-12-11T05:08:16.838Z,99759.42
2018-12-11T05:10:59.001Z,99761.17
2018-12-11T05:13:40.730Z,99754.34
2018-12-11T05:16:23.238Z,99750.03
2018-12-11T05:19:05.288Z,99760.61
2018-12-11T05:21:47.571Z,99751.23
2018-12-11T05:24:29.082Z,99747.28
2018-12-11T05:27:11.266Z,99754.31
2018-12-11T05:29:53.709Z,99748.38
2018-12-11T05:32:36.497Z,99750.70
2018-12-11T05:35:21.997Z,99757.97
2018-12-11T05:38:04.366Z,99751.36
2018-12-11T05:40:46.873Z,99750.69
2018-12-11T05:43:29.012Z,99754.67
2018-12-11T05:46:11.643Z,99754.88
2018-12-11T05:48:53.399Z,99754.70
2018-12-11T05:51:35.532Z,99749.59
2018-12-11T05:54:17.677Z,99745.33
2018-12-11T05:56:59.053Z,99737.66
2018-12-11T05:59:41.051Z,99741.58
2018-12-11T06:02:22.810Z,99729.24
2018-12-11T06:05:06.331Z,99724.19
2018-12-11T06:07:48.620Z,99715.93
2018-12-11T06:10:31.318Z,99719.40
2018-12-11T06:13:13.701Z,99712.94
2018-12-11T06:15:55.574Z,99713.34
2018-12-11T06:18:38.602Z,99728.67
2018-12-11T06:21:20.994Z,99713.00
2018-12-11T06:24:02.794Z,99720.20
2018-12-11T06:26:45.160Z,99727.99
2018-12-11T06:29:28.681Z,99732.34
2018-12-11T06:32:11.047Z,99732.25
2018-12-11T06:34:53.634Z,99727.63
2018-12-11T06:37:36.196Z,99722.73
2018-12-11T06:40:18.943Z,99727.03
2018-12-11T06:43:00.717Z,99732.81
2018-12-11T06:45:43.020Z,99736.03
2018-12-11T06:48:25.818Z,99755.18
2018-12-11T06:51:07.639Z,99738.57
2018-12-11T06:53:49.577Z,99747.36
2018-12-11T06:56:33.315Z,99763.16
2018-12-11T06:59:15.995Z,99769.12
2018-12-11T07:01:58.684Z,99770.92
2018-12-11T07:04:41.128Z,99766.13
2018-12-11T07:07:22.725Z,99771.28
2018-12-11T07:10:06.444Z,99762.66
2018-12-11T07:12:48.405Z,99769.30
2018-12-11T07:15:31.489Z,99768.56
2018-12-11T07:18:13.106Z,99775.70
2018-12-11T07:20:54.308Z,99788.14
2018-12-11T07:23:36.280Z,99783.94
2018-12-11T07:26:18.546Z,99795.17
2018-12-11T07:29:00.424Z,99794.44
2018-12-11T07:31:42.806Z,99795.57
2018-12-11T07:34:24.911Z,99797.98
2018-12-11T07:37:07.060Z,99797.05
2018-12-11T07:39:50.006Z,99792.30
2018-12-11T07:42:31.614Z,99794.61
2018-12-11T07:45:13.665Z,99793.86
2018-12-11T07:47:54.895Z,99805.25
2018-12-11T07:50:36.564Z,99808.42
2018-12-11T07:53:17.823Z,99794.89
2018-12-11T07:56:00.386Z,99814.91
2018-12-11T07:58:42.866Z,99800.94
2018-12-11T08:01:24.881Z,99809.44
2018-12-11T08:04:07.058Z,99816.59
2018-12-11T08:06:48.662Z,99812.84
2018-12-11T08:09:30.211Z,99818.16
2018-12-11T08:12:12.337Z,99807.54
2018-12-11T08:14:54.516Z,99810.82
2018-12-11T08:17:36.711Z,99810.14
2018-12-11T08:20:18.463Z,99806.59
2018-12-11T08:22:59.841Z,99816.66
2018-12-11T08:25:41.755Z,99819.45
2018-12-11T08:28:23.312Z,99829.03
2018-12-11T08:31:05.122Z,99830.07
2018-12-11T08:33:46.310Z,99838.50
2018-12-11T08:36:28.009Z,99833.92
2018-12-11T08:39:10.129Z,99836.70
2018-12-11T08:41:52.119Z,99839.23
2018-12-11T08:44:33.249Z,99837.87
2018-12-11T08:47:15.030Z,99846.95
2018-12-11T08:49:56.672Z,99848.27
2018-12-11T08:52:37.795Z,99851.30
2018-12-11T08:55:19.065Z,99849.78
2018-12-11T08:58:00.728Z,99855.96
2018-12-11T09:00:42.735Z,99855.68
2018-12-11T09:03:24.292Z,99857.59
2018-12-11T09:06:06.597Z,99864.81
2018-12-11T09:08:48.655Z,99863.98
2018-12-11T09:11:30.447Z,99871.08
2018-12-11T09:14:12.801Z,99872.27
2018-12-11T09:16:55.061Z,99871.10
2018-12-11T09:19:36.623Z,99882.98
2018-12-11T09:22:18.335Z,99885.40
2018-12-11T09:25:00.284Z,99891.66
2018-12-11T09:27:41.842Z,99890.12
2018-12-11T09:30:23.539Z,99895.20
2018-12-11T09:33:05.697Z,99890.92
2018-12-11T09:35:48.780Z,99894.48
2018-12-11T09:38:30.208Z,99889.84
2018-12-11T09:41:11.876Z,99893.92
2018-12-11T09:43:53.771Z,99891.61
2018-12-11T09:46:35.514Z,99894.70
2018-12-11T09:49:17.774Z,99898.38
2018-12-11T09:51:59.639Z,99895.23
2018-12-11T09:54:41.903Z,99898.77
2018-12-11T09:57:23.638Z,99896.45
2018-12-11T10:00:08.496Z,99896.81
2018-12-11T10:02:50.189Z,99904.20
2018-12-11T10:05:32.767Z,99895.25
2018-12-11T10:08:14.623Z,99903.63
2018-12-11T10:10:56.912Z,99907.63
2018-12-11T10:13:39.217Z,99895.21
2018-12-11T10:16:21.478Z,99906.99
2018-12-11T10:19:02.783Z,99910.36
2018-12-11T10:21:45.822Z,99909.31
2018-12-11T10:24:27.749Z,99906.64
2018-12-11T10:27:10.403Z,99910.08
2018-12-11T10:29:51.681Z,99912.38
2018-12-11T10:32:32.926Z,99909.99
2018-12-11T10:35:15.510Z,99918.50
2018-12-11T10:37:57.358Z,99926.91
2018-12-11T10:40:39.980Z,99913.23
2018-12-11T10:43:22.093Z,99917.96
2018-12-11T10:46:04.181Z,99916.64
2018-12-11T10:48:46.281Z,99919.85
2018-12-11T10:51:28.546Z,99915.62
2018-12-11T10:54:11.313Z,99917.47
2018-12-11T10:56:53.708Z,99925.04
2018-12-11T10:59:35.965Z,99928.17
2018-12-11T11:02:26.443Z,99928.56
2018-12-11T11:05:09.152Z,99931.17
2018-12-11T11:07:51.339Z,99932.64
2018-12-11T11:10:33.488Z,99939.16
2018-12-11T11:13:15.280Z,99937.96
2018-12-11T11:15:57.767Z,99936.69
2018-12-11T11:18:40.339Z,99944.48
2018-12-11T11:21:22.896Z,99946.75
2018-12-11T11:24:05.527Z,99943.73
2018-12-11T11:27:30.886Z,99950.04
2018-12-11T11:30:27.432Z,99952.39
2018-12-11T11:33:10.763Z,99949.73
2018-12-11T11:35:55.674Z,99953.95
2018-12-11T11:38:52.797Z,99959.56
2018-12-11T11:41:43.114Z,99953.75
2018-12-11T11:44:25.088Z,99960.48
2018-12-11T11:47:11.976Z,99955.58
2018-12-11T11:49:55.838Z,99957.85
2018-12-11T11:52:51.159Z,99954.08
2018-12-11T11:55:38.977Z,99967.73
2018-12-11T11:58:21.258Z,99961.73
2018-12-11T12:01:06.282Z,99963.08
2018-12-11T12:03:50.444Z,99968.09
2018-12-11T12:06:33.926Z,99962.25
2018-12-11T12:09:27.328Z,99971.02
2018-12-11T12:12:09.375Z,99969.48
2018-12-11T12:14:52.246Z,99974.42
2018-12-11T12:17:34.336Z,99978.02
2018-12-11T12:20:16.579Z,99982.27
2018-12-11T12:22:58.891Z,99982.73
2018-12-11T12:25:41.146Z,99981.14
2018-12-11T12:28:23.695Z,99985.14
2018-12-11T12:31:07.309Z,99982.38
2018-12-11T12:33:49.263Z,99986.55
2018-12-11T12:36:32.387Z,99981.81
2018-12-11T12:39:15.030Z,99989.20
2018-12-11T12:41:56.925Z,99992.80
2018-12-11T12:44:39.102Z,99985.43
2018-12-11T12:47:21.611Z,99993.95
2018-12-11T12:50:04.736Z,99990.41
2018-12-11T12:52:48.379Z,99992.92
2018-12-11T12:55:31.513Z,99997.95
2018-12-11T12:58:13.990Z,100000.54
2018-12-11T13:00:56.263Z,100005.81
2018-12-11T13:03:38.911Z,100008.76
2018-12-11T13:06:21.477Z,100005.56
2018-12-11T13:09:05.521Z,100009.75
2018-12-11T13:11:48.143Z,100005.30
2018-12-11T13:14:30.073Z,100011.54
2018-12-11T13:17:12.657Z,100023.19
2018-12-11T13:19:54.517Z,100022.13
2018-12-11T13:25:19.410Z,100028.53
2018-12-11T13:28:01.808Z,100029.88
2018-12-11T13:30:44.464Z,100033.34
2018-12-11T13:33:26.415Z,100034.15
2018-12-11T13:36:09.061Z,100039.66
2018-12-11T13:38:53.496Z,100041.19
2018-12-11T13:41:35.411Z,100043.56
2018-12-11T13:44:18.506Z,100044.09
2018-12-11T13:47:00.068Z,100042.14
2018-12-11T13:49:42.772Z,100047.95
2018-12-11T13:52:25.482Z,100054.20
2018-12-11T13:55:08.073Z,100059.00
2018-12-11T13:57:49.832Z,100066.25
2018-12-11T14:00:33.280Z,100071.02
2018-12-11T14:03:15.415Z,100072.23
2018-12-11T14:05:57.211Z,100066.98
2018-12-11T14:08:39.464Z,100064.89
2018-12-11T14:11:22.029Z,100070.31
2018-12-11T14:14:04.586Z,100081.28
2018-12-11T14:16:46.484Z,100084.69
2018-12-11T14:19:29.268Z,100093.23
2018-12-11T14:22:11.957Z,100086.74
2018-12-11T14:24:54.216Z,100089.85
2018-12-11T14:27:36.586Z,100091.66
2018-12-11T14:30:19.248Z,100092.16
2018-12-11T14:33:01.645Z,100093.70
2018-12-11T14:35:43.946Z,100097.14
2018-12-11T14:38:27.353Z,100097.05
2018-12-11T14:41:09.580Z,100102.14
2018-12-11T14:43:52.051Z,100099.14
2018-12-11T14:46:34.530Z,100101.82
2018-12-11T14:49:17.317Z,100100.66
2018-12-11T14:52:00.089Z,100096.17
2018-12-11T14:54:42.340Z,100094.80
2018-12-11T14:57:24.356Z,100093.93
2018-12-11T15:00:09.702Z,100087.70
2018-12-11T15:02:52.139Z,100101.59
2018-12-11T15:05:35.102Z,100101.78
2018-12-11T15:08:17.038Z,100099.62
2018-12-11T15:10:59.282Z,100097.12
2018-12-11T15:13:41.485Z,100101.20
2018-12-11T15:16:25.324Z,100103.28
2018-12-11T15:19:07.969Z,100101.47
2018-12-11T15:21:50.750Z,100105.59
2018-12-11T15:24:33.059Z,100113.02
2018-12-11T15:27:15.852Z,100107.42
2018-12-11T15:29:57.899Z,100112.84
2018-12-11T15:32:39.330Z,100117.47
2018-12-11T15:35:21.316Z,100121.53
2018-12-11T15:38:03.205Z,100114.63
2018-12-11T15:40:45.574Z,100106.08
2018-12-11T15:43:28.480Z,100126.22
2018-12-11T15:46:14.406Z,100125.91
2018-12-11T15:48:56.879Z,100119.38
2018-12-11T15:51:38.371Z,100121.70
2018-12-11T15:54:20.698Z,100122.88
2018-12-11T15:57:03.860Z,100129.59
2018-12-11T15:59:45.917Z,100127.91
2018-12-11T16:02:28.807Z,100133.46
2018-12-11T16:05:15.295Z,100133.39
2018-12-11T16:08:00.191Z,100134.64
2018-12-11T16:10:42.442Z,100134.11
2018-12-11T16:13:24.487Z,100138.03
2018-12-11T16:16:07.216Z,100139.42
2018-12-11T16:18:48.485Z,100146.17
2018-12-11T16:21:31.034Z,100152.86
2018-12-11T16:24:12.473Z,100159.61
2018-12-11T16:29:37.436Z,100150.08
2018-12-11T16:32:19.562Z,100162.44
2018-12-11T16:35:01.800Z,100159.67
2018-12-11T16:37:44.861Z,100155.56
2018-12-11T16:40:26.651Z,100161.77
2018-12-11T16:43:08.873Z,100159.05
2018-12-11T16:45:50.975Z,100162.40
2018-12-11T16:48:32.864Z,100160.92
2018-12-11T16:51:14.398Z,100161.03
2018-12-11T16:53:56.608Z,100165.34
2018-12-11T16:56:38.384Z,100171.56
2018-12-11T16:59:20.780Z,100175.31
2018-12-11T17:02:02.606Z,100177.11
2018-12-11T17:04:43.812Z,100179.23
2018-12-11T17:07:26.503Z,100179.48
2018-12-11T17:10:09.319Z,100185.55
2018-12-11T17:12:51.029Z,100185.86
2018-12-11T17:15:34.232Z,100186.59
2018-12-11T17:18:15.477Z,100195.48
2018-12-11T17:20:57.114Z,100201.25
2018-12-11T17:23:40.100Z,100200.00
2018-12-11T17:26:22.504Z,100203.75
2018-12-11T17:29:04.598Z,100202.64
2018-12-11T17:31:46.292Z,100200.70
2018-12-11T17:34:27.646Z,100203.52
2018-12-11T17:37:09.787Z,100198.20
2018-12-11T17:39:51.910Z,100202.19
2018-12-11T17:42:33.318Z,100204.94
2018-12-11T17:48:00.499Z,100208.89
2018-12-11T17:50:43.077Z,100205.48
2018-12-11T17:53:24.497Z,100210.78
2018-12-11T17:56:07.250Z,100211.05
2018-12-11T17:58:49.586Z,100206.41
2018-12-11T18:01:34.758Z,100217.91
2018-12-11T18:04:17.472Z,100211.67
2018-12-11T18:07:01.313Z,100219.33
2018-12-11T18:09:45.092Z,100210.17
2018-12-11T18:12:28.272Z,100215.87
2018-12-11T18:15:11.961Z,100218.37
2018-12-11T18:17:53.784Z,100214.61
2018-12-11T18:20:35.756Z,100223.45
2018-12-11T18:23:17.139Z,100223.14
2018-12-11T18:25:59.275Z,100226.27
2018-12-11T18:28:43.103Z,100222.91
2018-12-11T18:31:25.870Z,100226.87
2018-12-11T18:34:11.166Z,100229.30
2018-12-11T18:36:53.409Z,100232.53
2018-12-11T18:39:36.508Z,100234.69
2018-12-11T18:42:20.009Z,100239.24
2018-12-11T18:45:04.307Z,100236.90
2018-12-11T18:47:49.936Z,100239.78
2018-12-11T18:50:30.182Z,100237.13
2018-12-11T18:53:13.360Z,100237.61
2018-12-11T18:55:55.567Z,100235.89
2018-12-11T18:58:36.725Z,100236.03
2018-12-11T19:01:19.649Z,100230.55
2018-12-11T19:04:01.599Z,100238.61
2018-12-11T19:06:44.694Z,100235.42
2018-12-11T19:09:26.486Z,100240.11
2018-12-11T19:12:08.444Z,100233.08
2018-12-11T19:14:50.064Z,100245.73
2018-12-11T19:17:31.493Z,100240.17
2018-12-11T19:20:14.390Z,100242.90
2018-12-11T19:23:07.188Z,100249.72
2018-12-11T19:25:49.770Z,100246.28
2018-12-11T19:28:32.193Z,100251.41
2018-12-11T19:31:14.483Z,100249.47
2018-12-11T19:33:57.623Z,100249.39
2018-12-11T19:36:39.670Z,100249.95
2018-12-11T19:39:23.679Z,100245.91
2018-12-11T19:42:06.493Z,100250.27
2018-12-11T19:44:47.844Z,100248.07
2018-12-11T19:47:29.708Z,100247.19
2018-12-11T19:50:12.865Z,100252.74
2018-12-11T19:52:55.789Z,100256.37
2018-12-11T19:55:37.852Z,100258.20
2018-12-11T19:58:19.233Z,100259.09
2018-12-11T20:01:01.399Z,100253.94
2018-12-11T20:03:45.197Z,100254.37
2018-12-11T20:06:27.197Z,100257.22
2018-12-11T20:09:10.870Z,100252.27
2018-12-11T20:11:54.828Z,100256.17
2018-12-11T20:14:37.776Z,100259.69
2018-12-11T20:17:19.075Z,100256.88
2018-12-11T20:20:00.475Z,100258.70
2018-12-11T20:22:42.020Z,100259.32
2018-12-11T20:25:23.349Z,100262.42
2018-12-11T20:28:04.967Z,100267.89
2018-12-11T20:30:46.669Z,100272.59
2018-12-11T20:33:27.967Z,100274.80
2018-12-11T20:36:10.242Z,100279.97
2018-12-11T20:38:51.892Z,100278.23
2018-12-11T20:41:33.900Z,100275.00
2018-12-11T20:44:15.612Z,100278.61
2018-12-11T20:46:56.911Z,100278.38
2018-12-11T20:49:38.787Z,100275.58
2018-12-11T20:52:20.697Z,100274.14
2018-12-11T20:55:02.837Z,100279.69
2018-12-11T20:57:44.834Z,100280.48
2018-12-11T21:00:29.472Z,100283.33
2018-12-11T21:03:12.343Z,100277.98
2018-12-11T21:05:54.103Z,100279.14
2018-12-11T21:08:36.468Z,100279.25
2018-12-11T21:11:18.179Z,100287.34
2018-12-11T21:14:00.175Z,100282.66
2018-12-11T21:16:43.179Z,100289.37
2018-12-11T21:19:25.301Z,100287.91
2018-12-11T21:22:06.894Z,100287.32
2018-12-11T21:24:48.929Z,100296.34
2018-12-11T21:27:30.504Z,100295.31
2018-12-11T21:30:13.147Z,100291.03
2018-12-11T21:32:57.063Z,100293.14
2018-12-11T21:35:38.815Z,100292.89
2018-12-11T21:38:20.648Z,100298.52
2018-12-11T21:41:02.061Z,100302.04
2018-12-11T21:43:43.725Z,100302.68
2018-12-11T21:46:25.814Z,100303.98
2018-12-11T21:49:07.813Z,100317.10
2018-12-11T21:51:49.444Z,100314.23
2018-12-11T21:54:31.841Z,100316.32
2018-12-11T21:57:13.845Z,100319.02
2018-12-11T21:59:55.607Z,100327.28
2018-12-11T22:02:37.021Z,100322.69
2018-12-11T22:05:18.681Z,100323.84
2018-12-11T22:08:00.309Z,100329.92
2018-12-11T22:10:42.170Z,100333.66
2018-12-11T22:13:23.713Z,100340.03
2018-12-11T22:16:05.882Z,100341.19
2018-12-11T22:18:47.201Z,100346.08
2018-12-11T22:21:28.600Z,100351.03
2018-12-11T22:24:10.347Z,100357.38
2018-12-11T22:26:52.880Z,100355.96
2018-12-11T22:29:34.520Z,100359.83
2018-12-11T22:32:16.109Z,100353.92
2018-12-11T22:34:57.771Z,100366.13
2018-12-11T22:37:39.900Z,100366.02
2018-12-11T22:40:21.278Z,100364.22
2018-12-11T22:43:02.567Z,100365.94
2018-12-11T22:45:44.618Z,100366.59
2018-12-11T22:48:26.229Z,100371.28
2018-12-11T22:51:09.099Z,100379.56
2018-12-11T22:53:50.968Z,100383.36
2018-12-11T22:56:32.624Z,100382.67
2018-12-11T22:59:13.963Z,100378.39
2018-12-11T23:01:55.789Z,100389.28
2018-12-11T23:04:37.088Z,100388.52
2018-12-11T23:07:18.387Z,100389.41
2018-12-11T23:10:00.013Z,100390.23
2018-12-11T23:12:41.295Z,100391.77
2018-12-11T23:15:23.167Z,100390.25
2018-12-11T23:18:05.201Z,100393.75
2018-12-11T23:20:46.856Z,100394.54
2018-12-11T23:23:28.378Z,100389.36
2018-12-11T23:26:09.795Z,100389.70
2018-12-11T23:28:51.654Z,100385.00
2018-12-11T23:31:33.512Z,100388.88
2018-12-11T23:34:15.481Z,100394.09
2018-12-11T23:36:57.636Z,100390.55
2018-12-11T23:39:39.439Z,100402.67
2018-12-11T23:42:20.685Z,100400.25
2018-12-11T23:45:01.929Z,100405.97
2018-12-11T23:47:43.184Z,100405.71
2018-12-11T23:50:25.003Z,100411.42
2018-12-11T23:53:06.221Z,100416.61
2018-12-11T23:55:47.534Z,100419.08
2018-12-11T23:58:29.739Z,100417.80
